Time;durP1;ratioP1;P1;durP2;ratioP2;P2;SDS_P1;SDS_P2;PMS_P1;PMS_P2;Temp;Humidity;BMP_temperature;BMP_pressure;BME280_temperature;BME280_humidity;BME280_pressure;Samples;Min_cycle;Max_cycle;Signal;HPM_P1;HPM_P2
2021/06/06 00:01:21;;;;;;;0.10;0.10;;;;;;;17.16;62.16;102543.75;5042686;28;20044;-84
2021/06/06 00:03:52;;;;;;;0.30;0.30;;;;;;;17.22;62.10;102539.16;5040775;28;20025;-83
2021/06/06 00:06:22;;;;;;;0.20;0.20;;;;;;;17.16;62.40;102544.63;5053898;28;20029;-84
2021/06/06 00:08:50;;;;;;;0.38;0.38;;;;;;;17.18;62.32;102539.25;5053685;28;20043;-84
2021/06/06 00:11:22;;;;;;;0.10;0.10;;;;;;;16.97;63.08;102538.75;5053804;28;20021;-85
2021/06/06 00:13:50;;;;;;;0.63;0.63;;;;;;;16.98;62.99;102535.16;5053793;28;20498;-85
2021/06/06 00:16:21;;;;;;;0.22;0.22;;;;;;;17.04;63.08;102542.22;5053755;28;20498;-85
2021/06/06 00:18:48;;;;;;;0.60;0.57;;;;;;;17.09;62.77;102543.00;5047445;28;20040;-85
2021/06/06 00:21:16;;;;;;;2.80;2.00;;;;;;;17.11;62.90;102542.06;5046486;28;20031;-85
2021/06/06 00:23:42;;;;;;;0.10;0.10;;;;;;;17.03;63.14;102541.31;5053705;28;20025;-84
2021/06/06 00:26:09;;;;;;;0.10;0.10;;;;;;;17.02;63.35;102539.53;5037326;28;20750;-85
2021/06/06 00:28:36;;;;;;;0.75;0.75;;;;;;;16.97;63.62;102545.00;5041114;28;20571;-85
2021/06/06 00:31:06;;;;;;;0.95;0.95;;;;;;;16.98;63.15;102545.88;5053411;28;20028;-85
2021/06/06 00:33:33;;;;;;;0.40;0.40;;;;;;;16.96;63.47;102537.00;5052206;28;20476;-85
2021/06/06 00:35:59;;;;;;;0.93;0.68;;;;;;;17.07;62.85;102543.03;5053538;28;20507;-85
2021/06/06 00:38:26;;;;;;;1.35;1.08;;;;;;;17.08;63.00;102546.59;5049348;28;20025;-85
2021/06/06 00:40:52;;;;;;;0.05;0.05;;;;;;;16.91;63.87;102544.19;5046675;28;20052;-85
2021/06/06 00:43:20;;;;;;;0.40;0.40;;;;;;;17.02;63.25;102547.56;5038806;28;20042;-84
2021/06/06 00:45:47;;;;;;;0.68;0.68;;;;;;;17.07;62.98;102544.81;5053265;28;20025;-85
2021/06/06 00:48:14;;;;;;;0.43;0.38;;;;;;;16.94;63.51;102544.19;5052878;28;20075;-85
2021/06/06 00:50:45;;;;;;;0.15;0.15;;;;;;;17.05;63.13;102542.16;5053153;28;20031;-85
2021/06/06 00:53:28;;;;;;;0.85;0.85;;;;;;;16.93;63.85;102547.78;5053144;28;20398;-85
2021/06/06 00:55:55;;;;;;;0.15;0.15;;;;;;;17.02;63.12;102542.22;5053201;28;20021;-84
2021/06/06 00:58:22;;;;;;;0.00;0.00;;;;;;;16.88;63.64;102545.13;5053025;28;20057;-84
2021/06/06 01:00:52;;;;;;;0.77;0.77;;;;;;;16.94;63.67;102549.53;5052284;28;20036;-84
2021/06/06 01:03:22;;;;;;;0.08;0.08;;;;;;;16.94;63.60;102550.41;5052441;28;20033;-85
2021/06/06 01:08:33;;;;;;;0.10;0.10;;;;;;;16.76;63.88;102554.31;5078740;27;20161;-85
2021/06/06 01:11:05;;;;;;;1.65;0.65;;;;;;;16.83;63.84;102552.38;5069779;28;20021;-85
2021/06/06 01:13:39;;;;;;;;;;;;;;;16.97;63.26;102554.81;5070316;28;20039;-85
2021/06/06 01:16:12;;;;;;;0.43;0.43;;;;;;;16.89;63.63;102551.41;5070432;28;19912;-85
2021/06/06 01:18:43;;;;;;;0.25;0.25;;;;;;;17.04;63.10;102548.44;5069782;28;20115;-85
2021/06/06 01:24:36;;;;;;;0.10;0.10;;;;;;;17.06;63.19;102549.28;5082093;27;20645;-85
2021/06/06 01:27:14;;;;;;;0.10;0.10;;;;;;;17.14;62.67;102551.81;5089804;28;20028;-84
2021/06/06 01:30:10;;;;;;;0.10;0.10;;;;;;;17.09;63.19;102549.22;5117267;22;20515;-87
2021/06/06 01:32:42;;;;;;;0.15;0.15;;;;;;;16.95;63.35;102545.97;5070211;28;20033;-87
2021/06/06 01:35:15;;;;;;;0.10;0.10;;;;;;;16.90;63.16;102542.47;5072110;28;20033;-88
2021/06/06 01:37:48;;;;;;;0.20;0.20;;;;;;;16.80;63.57;102545.28;5069286;28;20075;-88
2021/06/06 01:40:19;;;;;;;0.10;0.10;;;;;;;16.84;63.03;102537.22;5051650;28;20083;-87
2021/06/06 01:42:50;;;;;;;0.10;0.10;;;;;;;16.86;63.19;102535.38;5050348;28;20049;-89
2021/06/06 01:45:22;;;;;;;0.10;0.10;;;;;;;16.99;62.53;102534.25;5050251;28;20116;-87
2021/06/06 01:47:51;;;;;;;0.10;0.10;;;;;;;16.93;62.63;102531.69;5050005;28;20135;-88
2021/06/06 01:50:26;;;;;;;0.10;0.10;;;;;;;17.00;62.40;102530.69;5048492;28;20104;-89
2021/06/06 01:52:54;;;;;;;0.10;0.10;;;;;;;16.90;62.56;102526.38;5050156;28;20435;-88
2021/06/06 01:55:24;;;;;;;0.20;0.20;;;;;;;17.00;62.16;102532.44;5050456;28;20025;-88
2021/06/06 01:57:54;;;;;;;0.20;0.20;;;;;;;16.88;62.49;102528.22;5050795;28;20075;-88
2021/06/06 02:00:44;;;;;;;0.10;0.10;;;;;;;17.13;62.30;102528.63;5050189;28;20049;-88
2021/06/06 02:03:12;;;;;;;0.93;0.40;;;;;;;16.85;62.56;102529.16;5050375;28;20041;-87
2021/06/06 02:05:40;;;;;;;0.57;0.57;;;;;;;16.94;62.54;102529.00;5050103;28;20033;-89
2021/06/06 02:08:11;;;;;;;1.08;0.32;;;;;;;17.02;62.18;102530.63;5050557;28;20033;-89
2021/06/06 02:10:48;;;;;;;0.10;0.10;;;;;;;16.92;62.20;102532.63;5048848;28;20044;-88
2021/06/06 02:13:26;;;;;;;0.73;0.50;;;;;;;16.80;62.65;102520.34;5049053;28;20464;-88
2021/06/06 02:15:57;;;;;;;0.10;0.10;;;;;;;16.77;62.76;102523.94;5049416;28;20017;-88
2021/06/06 02:18:27;;;;;;;0.20;0.20;;;;;;;16.87;62.51;102524.63;5049878;28;20029;-89
2021/06/06 02:20:54;;;;;;;0.80;0.80;;;;;;;16.65;63.45;102526.84;5049866;28;20098;-89
2021/06/06 02:23:24;;;;;;;0.10;0.10;;;;;;;16.74;63.15;102529.34;5048375;28;20044;-87
2021/06/06 02:26:02;;;;;;;0.10;0.10;;;;;;;16.62;63.20;102522.44;5050215;28;20036;-88
2021/06/06 02:34:24;;;;;;;0.10;0.10;;;;;;;16.88;62.65;102528.22;5074285;27;20164;-88
2021/06/06 02:37:01;;;;;;;0.32;0.32;;;;;;;16.77;62.68;102526.63;5061838;28;20040;-89
2021/06/06 02:39:35;;;;;;;2.78;1.23;;;;;;;16.74;62.64;102526.66;5050950;28;20021;-88
2021/06/06 02:42:25;;;;;;;0.10;0.10;;;;;;;16.71;62.67;102521.38;5050729;28;20025;-88
2021/06/06 02:44:58;;;;;;;0.20;0.20;;;;;;;16.74;62.36;102526.66;5050475;28;20024;-88
2021/06/06 02:47:28;;;;;;;0.10;0.10;;;;;;;16.61;62.49;102525.13;5050544;28;20021;-88
2021/06/06 02:49:59;;;;;;;0.10;0.10;;;;;;;16.56;63.02;102522.56;5053887;28;20021;-88
2021/06/06 02:52:47;;;;;;;0.10;0.10;;;;;;;16.46;63.36;102526.28;5050017;28;20500;-88
2021/06/06 02:55:19;;;;;;;0.00;0.00;;;;;;;16.45;62.79;102522.75;5050670;28;20123;-88
2021/06/06 02:57:52;;;;;;;0.20;0.20;;;;;;;16.33;63.22;102520.28;5051051;28;20033;-88
2021/06/06 03:00:27;;;;;;;0.10;0.10;;;;;;;16.31;63.40;102519.41;5050131;28;20280;-88
2021/06/06 03:03:00;;;;;;;0.10;0.10;;;;;;;16.32;63.21;102513.16;5050734;28;20029;-88
2021/06/06 03:05:30;;;;;;;0.10;0.10;;;;;;;16.15;64.41;102522.38;5050471;28;20030;-88
2021/06/06 03:08:00;;;;;;;0.10;0.10;;;;;;;16.13;63.96;102521.50;5050128;28;20083;-88
2021/06/06 03:10:30;;;;;;;0.10;0.10;;;;;;;16.17;63.33;102530.34;5054651;28;20033;-88
2021/06/06 03:13:01;;;;;;;0.10;0.10;;;;;;;16.19;63.84;102531.22;5050368;28;20087;-88
2021/06/06 03:15:33;;;;;;;0.52;0.52;;;;;;;16.12;63.95;102533.09;5050625;28;20040;-88
2021/06/06 03:18:02;;;;;;;0.88;0.88;;;;;;;16.14;63.31;102531.28;5050523;28;20045;-88
2021/06/06 03:20:35;;;;;;;0.63;0.63;;;;;;;16.14;63.77;102531.28;5050477;28;20025;-88
2021/06/06 03:23:04;;;;;;;0.30;0.30;;;;;;;16.10;63.50;102529.59;5050081;28;20078;-88
2021/06/06 03:25:54;;;;;;;0.00;0.00;;;;;;;16.16;63.54;102531.25;5049640;28;20025;-89
2021/06/06 03:28:27;;;;;;;0.32;0.32;;;;;;;16.12;63.18;102534.91;5049504;28;20065;-88
2021/06/06 03:30:58;;;;;;;0.03;0.03;;;;;;;16.06;63.09;102541.22;5049928;28;20025;-88
2021/06/06 03:36:31;;;;;;;0.10;0.10;;;;;;;16.01;63.83;102535.06;5117249;27;20236;-87
2021/06/06 03:38:58;;;;;;;0.10;0.10;;;;;;;15.98;63.70;102532.44;5090445;28;20387;-87
2021/06/06 03:41:27;;;;;;;0.00;0.00;;;;;;;15.93;63.83;102542.34;5090706;28;20050;-88
2021/06/06 03:43:54;;;;;;;0.32;0.32;;;;;;;15.97;63.36;102530.69;5090718;28;20024;-88
2021/06/06 03:46:23;;;;;;;0.10;0.10;;;;;;;15.90;63.92;102537.91;5089110;28;20021;-87
2021/06/06 03:48:50;;;;;;;0.10;0.10;;;;;;;15.94;63.81;102538.75;5091023;28;20021;-88
2021/06/06 03:51:18;;;;;;;0.13;0.13;;;;;;;15.96;63.50;102531.56;5090843;28;20081;-87
2021/06/06 03:53:45;;;;;;;0.10;0.10;;;;;;;15.97;63.57;102538.69;5090005;28;20086;-89
2021/06/06 03:56:14;;;;;;;0.10;0.10;;;;;;;15.91;63.92;102538.78;5072420;28;20064;-88
2021/06/06 03:58:42;;;;;;;0.10;0.10;;;;;;;15.97;63.60;102530.69;5078716;28;20028;-89
2021/06/06 04:01:10;;;;;;;0.25;0.25;;;;;;;15.92;63.27;102535.22;5090793;28;20139;-88
2021/06/06 04:03:36;;;;;;;0.10;0.10;;;;;;;15.92;63.44;102527.19;5090718;28;20106;-88
2021/06/06 04:06:04;;;;;;;0.10;0.10;;;;;;;15.90;63.66;102520.97;5089909;28;20036;-87
2021/06/06 04:08:32;;;;;;;0.10;0.10;;;;;;;15.94;63.42;102528.06;5090461;28;20024;-89
2021/06/06 04:10:59;;;;;;;0.10;0.10;;;;;;;15.97;63.08;102523.53;5076979;28;20028;-88
2021/06/06 04:13:26;;;;;;;0.17;0.17;;;;;;;15.96;63.06;102524.47;5089843;28;20104;-88
2021/06/06 04:15:53;;;;;;;0.10;0.10;;;;;;;15.97;63.25;102528.88;5078403;28;20025;-88
2021/06/06 04:18:23;;;;;;;0.10;0.10;;;;;;;15.98;62.97;102532.44;5076147;28;20081;-86
2021/06/06 04:20:52;;;;;;;0.15;0.15;;;;;;;15.90;63.82;102537.91;5076726;28;20021;-86
2021/06/06 04:23:20;;;;;;;0.00;0.00;;;;;;;15.99;63.39;102531.53;5078637;28;20029;-87
2021/06/06 04:25:48;;;;;;;0.20;0.20;;;;;;;15.90;63.49;102531.66;5068810;28;20112;-88
2021/06/06 04:28:16;;;;;;;0.10;0.10;;;;;;;15.89;63.42;102538.81;5077237;28;20167;-87
2021/06/06 04:30:42;;;;;;;0.10;0.10;;;;;;;15.92;63.34;102535.22;5080467;28;20020;-88
2021/06/06 04:33:09;;;;;;;0.10;0.10;;;;;;;15.95;63.16;102532.47;5076027;28;20021;-87
2021/06/06 04:35:38;;;;;;;0.10;0.10;;;;;;;15.95;62.84;102533.38;5076820;28;20035;-87
2021/06/06 04:38:06;;;;;;;0.10;0.10;;;;;;;15.88;63.49;102539.72;5065139;28;20029;-88
2021/06/06 04:40:33;;;;;;;0.13;0.13;;;;;;;15.96;62.99;102536.94;5086534;28;20028;-88
2021/06/06 04:43:01;;;;;;;0.75;0.75;;;;;;;15.89;63.26;102545.94;5089761;28;20455;-82
2021/06/06 04:45:28;;;;;;;0.22;0.22;;;;;;;16.01;62.63;102545.75;5087467;28;20650;-88
2021/06/06 04:47:54;;;;;;;0.20;0.20;;;;;;;15.97;62.77;102549.38;5074903;28;20025;-88
2021/06/06 04:50:21;;;;;;;0.10;0.10;;;;;;;15.97;62.78;102549.38;5074744;28;20024;-88
2021/06/06 04:52:48;;;;;;;0.10;0.10;;;;;;;15.94;62.65;102550.31;5076184;28;20028;-88
2021/06/06 04:55:19;;;;;;;0.45;0.45;;;;;;;16.07;62.30;102548.34;5075556;28;20494;-87
2021/06/06 04:57:46;;;;;;;1.00;0.95;;;;;;;16.12;62.15;102551.81;5054497;28;20602;-87
2021/06/06 05:00:21;;;;;;;0.10;0.10;;;;;;;16.17;62.34;102552.66;5061738;28;20028;-88
2021/06/06 05:02:47;;;;;;;0.17;0.17;;;;;;;16.11;62.24;102550.06;5074131;28;20029;-88
2021/06/06 05:05:14;;;;;;;0.10;0.10;;;;;;;16.14;62.13;102551.81;5074833;28;20028;-87
2021/06/06 05:07:40;;;;;;;1.40;1.27;;;;;;;16.06;62.15;102541.22;5075220;28;20089;-88
2021/06/06 05:10:08;;;;;;;8.20;0.95;;;;;;;16.07;62.04;102548.34;5075326;28;20040;-88
2021/06/06 05:12:35;;;;;;;0.13;0.13;;;;;;;16.12;62.06;102549.13;5075731;28;20029;-88
2021/06/06 05:15:02;;;;;;;0.20;0.20;;;;;;;16.21;61.81;102540.06;5075761;28;20047;-88
2021/06/06 05:17:29;;;;;;;0.10;0.10;;;;;;;16.14;61.98;102544.66;5075963;28;20020;-86
2021/06/06 05:19:55;;;;;;;0.50;0.35;;;;;;;16.27;61.57;102542.66;5075418;28;20032;-88
2021/06/06 05:22:21;;;;;;;4.70;1.98;;;;;;;16.36;61.27;102541.63;5075087;28;20040;-88
2021/06/06 05:24:48;;;;;;;0.17;0.17;;;;;;;16.29;61.19;102539.97;5074879;28;20448;-87
2021/06/06 05:27:15;;;;;;;0.10;0.10;;;;;;;16.25;61.38;102539.16;5056749;28;20025;-87
2021/06/06 05:29:41;;;;;;;2.28;0.60;;;;;;;16.31;61.19;102539.03;5062515;28;20100;-87
2021/06/06 05:32:08;;;;;;;0.10;0.10;;;;;;;16.29;61.24;102537.31;5075374;28;20040;-87
2021/06/06 05:34:34;;;;;;;0.00;0.00;;;;;;;16.33;61.12;102528.31;5075613;28;20185;-87
2021/06/06 05:37:00;;;;;;;0.10;0.10;;;;;;;16.46;60.99;102531.63;5074519;28;20514;-87
2021/06/06 05:39:27;;;;;;;0.10;0.10;;;;;;;16.41;60.77;102534.41;5075235;28;20032;-87
2021/06/06 05:41:53;;;;;;;0.10;0.10;;;;;;;16.50;60.58;102534.25;5075208;28;20078;-88
2021/06/06 05:44:19;;;;;;;0.30;0.30;;;;;;;16.63;60.41;102539.38;5049206;28;20037;-88
2021/06/06 05:46:46;;;;;;;0.10;0.10;;;;;;;16.66;59.73;102533.97;5061007;28;20491;-88
2021/06/06 05:49:12;;;;;;;0.10;0.10;;;;;;;16.76;60.03;102535.56;5077484;28;20559;-87
2021/06/06 05:51:39;;;;;;;0.52;0.52;;;;;;;16.74;59.93;102537.38;5076332;28;20023;-88
2021/06/06 05:54:05;;;;;;;1.48;1.38;;;;;;;16.67;59.96;102541.06;5074564;28;20044;-89
2021/06/06 05:56:31;;;;;;;0.20;0.20;;;;;;;16.80;60.17;102553.31;5074919;28;20020;-88
2021/06/06 05:58:58;;;;;;;0.90;0.65;;;;;;;16.92;59.96;102548.66;5053483;22;20038;-86
2021/06/06 06:01:24;;;;;;;0.17;0.17;;;;;;;16.91;59.94;102550.47;5013341;28;20038;-85
2021/06/06 06:03:50;;;;;;;0.10;0.10;;;;;;;16.86;59.61;102552.34;5014216;28;20105;-85
2021/06/06 06:06:17;;;;;;;0.05;0.05;;;;;;;16.88;59.89;102545.13;5045362;28;20061;-85
2021/06/06 06:08:45;;;;;;;0.55;0.55;;;;;;;17.03;59.51;102552.03;5013306;28;20022;-86
2021/06/06 06:11:16;;;;;;;0.10;0.10;;;;;;;17.10;59.27;102548.31;5013583;28;20061;-84
2021/06/06 06:13:43;;;;;;;0.10;0.10;;;;;;;17.12;59.37;102551.84;5013630;28;20026;-84
2021/06/06 06:16:11;;;;;;;0.10;0.10;;;;;;;17.14;59.28;102557.16;5013242;28;20030;-85
2021/06/06 06:18:38;;;;;;;0.70;0.70;;;;;;;17.12;59.28;102559.88;5013162;28;20401;-85
2021/06/06 06:21:08;;;;;;;0.10;0.10;;;;;;;17.18;59.07;102558.00;5013559;28;20102;-85
2021/06/06 06:23:35;;;;;;;2.90;1.65;;;;;;;17.16;58.75;102559.81;5013435;28;20037;-85
2021/06/06 06:26:01;;;;;;;0.10;0.10;;;;;;;17.30;59.23;102552.38;5011138;28;20034;-85
2021/06/06 06:28:28;;;;;;;0.03;0.03;;;;;;;17.41;58.64;102550.34;5012985;28;20330;-85
2021/06/06 06:30:54;;;;;;;0.40;0.40;;;;;;;17.32;58.94;102555.03;5012771;28;20077;-85
2021/06/06 06:33:20;;;;;;;0.10;0.10;;;;;;;17.55;58.44;102554.53;5012267;28;20033;-85
2021/06/06 06:35:47;;;;;;;0.13;0.13;;;;;;;17.54;58.47;102555.44;5012191;28;20681;-84
2021/06/06 06:38:13;;;;;;;0.10;0.10;;;;;;;17.53;58.53;102551.88;5012898;28;20354;-84
2021/06/06 06:40:39;;;;;;;0.10;0.10;;;;;;;17.51;57.89;102550.16;5012686;28;20033;-84
2021/06/06 06:43:06;;;;;;;0.40;0.40;;;;;;;17.55;57.66;102547.38;5012996;28;20068;-85
2021/06/06 06:45:36;;;;;;;0.40;0.40;;;;;;;17.63;57.47;102545.41;5012073;28;20389;-85
2021/06/06 06:48:08;;;;;;;0.15;0.15;;;;;;;17.67;57.69;102546.22;4998313;28;20030;-83
2021/06/06 06:50:35;;;;;;;0.10;0.10;;;;;;;17.71;57.09;102537.19;4998142;28;20027;-83
2021/06/06 06:53:02;;;;;;;0.10;0.10;;;;;;;17.75;57.96;102536.19;5002553;28;20540;-84
2021/06/06 06:55:31;;;;;;;0.10;0.10;;;;;;;17.71;57.60;102542.56;4999438;28;20066;-83
2021/06/06 06:58:00;;;;;;;0.10;0.10;;;;;;;17.83;57.23;102548.53;4996684;28;20028;-84
2021/06/06 07:00:31;;;;;;;0.10;0.10;;;;;;;17.81;56.90;102537.88;4993537;28;20041;-85
2021/06/06 07:02:57;;;;;;;0.10;0.10;;;;;;;18.00;56.97;102534.78;5009441;28;20521;-85
2021/06/06 07:05:24;;;;;;;0.10;0.10;;;;;;;18.05;56.59;102530.19;5012004;28;20073;-86
2021/06/06 07:07:51;;;;;;;0.30;0.30;;;;;;;18.09;56.58;102540.81;5012538;28;20030;-85
2021/06/06 07:10:21;;;;;;;0.10;0.10;;;;;;;18.15;56.68;102541.56;5012329;28;20036;-82
2021/06/06 07:12:47;;;;;;;0.10;0.10;;;;;;;18.27;56.57;102543.94;5012735;28;20030;-85
2021/06/06 07:15:15;;;;;;;0.10;0.10;;;;;;;18.16;56.66;102548.69;5010901;28;20236;-85
2021/06/06 07:17:43;;;;;;;0.45;0.43;;;;;;;18.30;55.82;102548.34;5012887;28;20029;-86
2021/06/06 07:20:12;;;;;;;0.10;0.10;;;;;;;18.31;55.92;102548.31;5012389;28;20458;-88
2021/06/06 07:22:39;;;;;;;0.25;0.25;;;;;;;18.45;55.44;102555.13;5012477;28;20487;-82
2021/06/06 07:25:07;;;;;;;0.10;0.10;;;;;;;18.48;55.39;102555.03;5012242;28;20025;-85
2021/06/06 07:27:43;;;;;;;3.15;0.40;;;;;;;18.59;55.72;102558.31;5012727;28;20458;-83
2021/06/06 07:30:13;;;;;;;0.17;0.17;;;;;;;18.62;54.82;102552.88;5008376;28;20036;-83
2021/06/06 07:32:39;;;;;;;0.70;0.45;;;;;;;18.60;53.84;102552.03;5001044;28;20022;-87
2021/06/06 07:35:07;;;;;;;0.10;0.10;;;;;;;18.69;52.70;102548.22;5011692;28;20119;-86
2021/06/06 07:37:33;;;;;;;0.10;0.10;;;;;;;18.77;53.50;102556.94;5008698;28;20026;-86
2021/06/06 07:40:00;;;;;;;0.00;0.00;;;;;;;18.81;52.52;102552.38;5011518;28;20056;-86
2021/06/06 07:42:27;;;;;;;0.10;0.10;;;;;;;18.85;52.07;102554.06;5008480;28;20113;-82
2021/06/06 07:44:53;;;;;;;0.10;0.10;;;;;;;19.08;52.36;102557.00;4998561;28;20092;-81
2021/06/06 07:47:19;;;;;;;0.00;0.00;;;;;;;19.04;51.37;102552.66;5010957;28;20033;-85
2021/06/06 07:49:45;;;;;;;0.10;0.10;;;;;;;19.08;50.66;102554.31;5006330;28;20040;-83
2021/06/06 07:52:12;;;;;;;1.27;1.20;;;;;;;19.21;51.59;102553.97;5011876;28;20409;-88
2021/06/06 07:54:39;;;;;;;0.17;0.17;;;;;;;19.20;51.39;102549.50;5012009;28;20396;-87
2021/06/06 07:57:06;;;;;;;0.40;0.40;;;;;;;19.43;50.62;102558.69;4997799;28;20381;-85
2021/06/06 07:59:33;;;;;;;0.75;0.75;;;;;;;19.40;50.44;102563.25;5010676;28;20030;-85
2021/06/06 08:02:00;;;;;;;0.10;0.10;;;;;;;19.47;50.76;102557.69;5001320;28;20014;-84
2021/06/06 08:04:26;;;;;;;0.10;0.10;;;;;;;19.52;50.42;102550.38;4995534;28;20046;-86
2021/06/06 08:06:53;;;;;;;0.10;0.10;;;;;;;19.62;51.40;102554.53;5005134;28;20068;-86
2021/06/06 08:09:20;;;;;;;0.73;0.70;;;;;;;19.58;50.64;102551.97;5007890;28;20107;-85
2021/06/06 08:11:46;;;;;;;0.88;0.28;;;;;;;19.54;50.09;102559.28;5011750;28;20033;-85
2021/06/06 08:14:12;;;;;;;0.22;0.22;;;;;;;19.81;50.67;102551.25;5011638;28;20026;-85
2021/06/06 08:16:39;;;;;;;0.15;0.15;;;;;;;19.76;50.06;102548.72;5012156;28;20121;-84
2021/06/06 08:19:06;;;;;;;0.10;0.10;;;;;;;19.81;49.76;102552.16;5010636;28;20022;-84
2021/06/06 08:21:38;;;;;;;0.10;0.10;;;;;;;20.11;50.08;102553.91;5012524;28;20033;-84
2021/06/06 08:24:06;;;;;;;0.10;0.10;;;;;;;20.08;50.05;102551.34;5015438;28;20034;-86
2021/06/06 08:26:33;;;;;;;0.10;0.10;;;;;;;20.11;49.44;102557.50;5012829;28;20026;-84
2021/06/06 08:28:59;;;;;;;0.10;0.10;;;;;;;20.18;48.60;102556.34;5015381;28;20088;-86
2021/06/06 08:31:29;;;;;;;0.15;0.15;;;;;;;20.42;49.44;102563.66;5012102;28;20025;-85
2021/06/06 08:33:56;;;;;;;0.15;0.15;;;;;;;20.38;48.39;102562.03;5008169;28;20032;-84
2021/06/06 08:36:28;;;;;;;0.10;0.10;;;;;;;20.39;48.08;102547.59;5015183;28;20038;-85
2021/06/06 08:38:56;;;;;;;1.03;0.93;;;;;;;20.29;48.53;102547.94;5015194;28;20034;-85
2021/06/06 08:41:27;;;;;;;0.20;0.20;;;;;;;20.57;49.08;102546.09;5015410;28;20560;-89
2021/06/06 08:44:07;;;;;;;0.10;0.10;;;;;;;20.70;48.66;102555.50;5015714;28;20113;-88
2021/06/06 08:46:47;;;;;;;0.10;0.10;;;;;;;20.74;49.05;102553.63;5015688;28;20025;-87
2021/06/06 08:49:14;;;;;;;0.10;0.10;;;;;;;20.73;48.33;102551.84;5015324;28;20072;-88
2021/06/06 08:51:49;;;;;;;0.20;0.20;;;;;;;20.92;47.72;102555.66;5008947;28;20038;-89
2021/06/06 08:57:13;;;;;;;0.10;0.10;;;;;;;20.98;47.17;102552.69;5071182;27;20145;-93
2021/06/06 08:59:46;;;;;;;0.10;0.10;;;;;;;21.27;47.22;102553.47;5050768;28;20381;-91
2021/06/06 09:05:02;;;;;;;0.25;0.25;;;;;;;21.42;46.10;102556.47;5107124;27;20543;-92
2021/06/06 09:10:25;;;;;;;0.10;0.10;;;;;;;21.62;45.90;102551.25;5120369;27;20139;-91
2021/06/06 09:12:52;;;;;;;0.10;0.10;;;;;;;21.68;45.64;102551.94;5083904;28;20040;-89
2021/06/06 09:15:22;;;;;;;0.10;0.10;;;;;;;21.83;45.82;102556.69;5086036;28;20417;-91
2021/06/06 09:17:53;;;;;;;0.10;0.10;;;;;;;21.96;45.05;102557.09;5083261;28;20024;-91
2021/06/06 09:23:08;;;;;;;0.10;0.10;;;;;;;22.19;45.73;102574.16;5065581;27;20156;-95
2021/06/06 09:25:46;;;;;;;0.00;0.00;;;;;;;22.23;45.03;102573.97;5066539;28;20021;-95
2021/06/06 09:28:21;;;;;;;0.10;0.10;;;;;;;22.25;44.72;102563.97;5062459;28;20044;-95
2021/06/06 09:30:59;;;;;;;0.10;0.10;;;;;;;22.34;43.82;102565.38;5046246;28;20029;-93
2021/06/06 09:36:29;;;;;;;0.10;0.10;;;;;;;22.38;43.67;102569.78;5087914;27;20191;-95
2021/06/06 09:39:17;;;;;;;0.17;0.17;;;;;;;22.45;42.61;102570.38;5066577;28;20037;-95
2021/06/06 09:41:47;;;;;;;0.10;0.10;;;;;;;22.40;43.72;102567.00;5067304;28;20060;-94
2021/06/06 09:47:11;;;;;;;0.10;0.10;;;;;;;22.54;43.15;102567.28;5110153;27;20195;-91
2021/06/06 09:52:46;;;;;;;0.17;0.17;;;;;;;22.66;41.72;102570.41;5072077;27;20498;-90
2021/06/06 09:58:33;;;;;;;0.10;0.10;;;;;;;22.94;42.15;102568.22;5092985;27;20169;-93
2021/06/06 10:01:06;;;;;;;0.28;0.28;;;;;;;22.93;42.22;102566.47;5047663;28;20030;-96
2021/06/06 10:03:40;;;;;;;0.10;0.10;;;;;;;22.93;40.79;102571.88;5057342;28;20547;-95
2021/06/06 10:12:17;;;;;;;0.17;0.17;;;;;;;23.12;41.96;102576.44;5102304;27;20220;-90
2021/06/06 10:20:33;;;;;;;0.10;0.10;;;;;;;23.40;41.81;102572.50;5081888;28;20160;-93
2021/06/06 10:23:14;;;;;;;0.40;0.40;;;;;;;23.50;40.24;102578.34;5071809;28;20025;-95
2021/06/06 10:28:34;;;;;;;0.00;0.00;;;;;;;23.67;41.45;102569.44;5080358;27;20172;-96
2021/06/06 10:37:05;;;;;;;0.20;0.20;;;;;;;24.11;41.04;102568.22;5071611;27;20543;-92
2021/06/06 10:39:38;;;;;;;0.00;0.00;;;;;;;24.04;40.02;102571.25;5058522;28;20111;-93
2021/06/06 10:47:34;;;;;;;0.10;0.10;;;;;;;24.15;39.66;102562.59;5107725;27;20605;-90
2021/06/06 10:50:25;;;;;;;0.10;0.10;;;;;;;24.22;39.63;102555.91;5071580;28;20032;-89
2021/06/06 10:53:05;;;;;;;0.20;0.20;;;;;;;24.19;40.13;102558.75;5068796;28;20036;-93
2021/06/06 10:55:44;;;;;;;0.10;0.10;;;;;;;24.39;38.74;102554.16;5067209;28;20041;-91
2021/06/06 10:58:14;;;;;;;0.15;0.15;;;;;;;24.49;39.37;102550.00;5068949;28;20040;-91
2021/06/06 11:00:54;;;;;;;0.17;0.17;;;;;;;24.37;38.26;102545.22;5067164;28;20557;-85
2021/06/06 11:03:26;;;;;;;0.40;0.38;;;;;;;24.47;39.20;102551.91;5068362;28;20035;-85
2021/06/06 11:05:57;;;;;;;1.02;0.57;;;;;;;24.56;38.45;102553.25;5068260;28;20115;-86
2021/06/06 11:16:53;;;;;;;0.10;0.10;;;;;;;24.79;38.87;102551.22;5110549;27;20384;-92
2021/06/06 11:22:35;;;;;;;0.00;0.00;;;;;;;24.81;39.19;102536.63;5074412;27;20155;-88
2021/06/06 11:25:03;;;;;;;0.85;0.57;;;;;;;25.06;38.60;102540.72;5060874;28;20099;-87
2021/06/06 11:28:38;;;;;;;0.17;0.17;;;;;;;25.22;38.44;102539.88;5058255;28;20021;-92
2021/06/06 11:30:56;;;;;;;0.38;0.38;;;;;;;25.12;37.94;102532.25;5041320;28;20044;-91
2021/06/06 11:34:30;;;;;;;0.52;0.52;;;;;;;25.37;37.13;102530.91;5042361;28;20038;-92
2021/06/06 11:42:56;;;;;;;0.10;0.10;;;;;;;25.67;37.57;102521.97;5063996;23;20046;-93
2021/06/06 11:45:58;;;;;;;;;;;;;;;;;;;;;
2021/06/06 11:52:25;;;;;;;1.45;0.93;;;;;;;25.83;37.07;102521.97;5054746;22;20493;-92
2021/06/06 12:08:18;;;;;;;0.10;0.10;;;;;;;26.39;35.89;102505.97;5170176;22;20170;-91
2021/06/06 12:11:57;;;;;;;0.10;0.10;;;;;;;26.47;35.19;102509.13;5101209;28;20115;-92
2021/06/06 12:15:21;;;;;;;0.10;0.10;;;;;;;26.58;35.81;102497.59;5065659;28;20076;-91
2021/06/06 12:17:47;;;;;;;0.10;0.10;;;;;;;26.68;34.45;102508.78;5076614;28;20032;-90
2021/06/06 12:20:20;;;;;;;0.10;0.10;;;;;;;26.72;34.73;102499.44;5096427;28;20102;-91
2021/06/06 12:22:47;;;;;;;0.00;0.00;;;;;;;26.76;34.10;102506.47;5079566;28;20032;-92
2021/06/06 12:28:23;;;;;;;0.10;0.10;;;;;;;27.02;31.89;102498.50;5126806;27;20363;-96
2021/06/06 12:31:19;;;;;;;;;;;;;;;27.25;33.69;102496.13;5021622;28;20053;-95
2021/06/06 12:33:46;;;;;;;0.20;0.20;;;;;;;27.23;35.33;102500.81;5012434;28;19918;-91
2021/06/06 12:36:34;;;;;;;0.00;0.00;;;;;;;27.34;32.65;102500.09;5014196;28;20037;-93
2021/06/06 12:39:04;;;;;;;0.10;0.10;;;;;;;27.24;33.01;102495.28;5012647;28;20124;-92
2021/06/06 12:41:49;;;;;;;0.10;0.10;;;;;;;27.39;32.57;102492.50;5012976;28;20003;-96
2021/06/06 12:44:19;;;;;;;0.00;0.00;;;;;;;27.37;33.02;102498.06;5009363;28;20046;-96
2021/06/06 12:52:21;;;;;;;0.05;0.05;;;;;;;27.65;32.60;102493.53;5081909;27;20168;-96
2021/06/06 12:54:48;;;;;;;0.00;0.00;;;;;;;27.71;32.19;102497.72;5087257;28;20027;-96
2021/06/06 12:57:20;;;;;;;0.05;0.05;;;;;;;27.69;30.55;102500.53;5081546;28;20024;-96
2021/06/06 12:59:46;;;;;;;;;;;;;;;27.87;30.72;102486.66;5057948;28;20056;-94
2021/06/06 13:05:06;;;;;;;0.00;0.00;;;;;;;27.96;30.80;102486.00;5111023;27;20584;-94
2021/06/06 13:07:35;;;;;;;0.10;0.10;;;;;;;27.88;31.30;102485.69;5090377;28;20103;-96
2021/06/06 13:10:08;;;;;;;0.30;0.30;;;;;;;27.81;31.09;102478.91;5091255;28;20032;-96
2021/06/06 13:15:31;;;;;;;0.10;0.10;;;;;;;28.17;31.47;102480.97;5073464;28;20157;-94
2021/06/06 13:17:57;;;;;;;0.10;0.10;;;;;;;28.25;30.76;102494.06;5075836;28;20035;-93
2021/06/06 13:20:29;;;;;;;0.03;0.03;;;;;;;28.34;30.83;102490.72;5053122;28;20209;-94
2021/06/06 13:31:28;;;;;;;0.08;0.08;;;;;;;28.60;30.57;102487.13;5119155;27;20219;-92
2021/06/06 13:33:54;;;;;;;0.50;0.50;;;;;;;28.44;31.58;102476.41;5099690;28;20036;-94
2021/06/06 13:36:21;;;;;;;0.10;0.10;;;;;;;28.67;31.28;102486.59;5102779;28;20028;-95
2021/06/06 13:38:47;;;;;;;0.00;0.00;;;;;;;28.64;29.78;102481.34;5097022;28;20035;-93
2021/06/06 13:41:15;;;;;;;0.10;0.10;;;;;;;28.47;28.55;102477.06;5103565;28;20043;-94
2021/06/06 13:43:42;;;;;;;0.10;0.10;;;;;;;28.71;29.36;102482.69;5097111;28;20099;-96
2021/06/06 13:46:14;;;;;;;0.10;0.10;;;;;;;28.81;28.32;102482.91;5083029;28;20020;-94